createdAt,value
2023-04-16T00:00:03.911Z,9.30
2023-04-16T00:02:32.108Z,9.30
2023-04-16T00:04:59.877Z,9.31
2023-04-16T00:07:27.572Z,9.31
2023-04-16T00:09:55.666Z,9.31
2023-04-16T00:12:23.778Z,9.31
2023-04-16T00:14:51.471Z,9.30
2023-04-16T00:17:19.134Z,9.31
2023-04-16T00:19:46.785Z,9.29
2023-04-16T00:22:14.466Z,9.28
2023-04-16T00:24:42.273Z,9.27
2023-04-16T00:27:09.972Z,9.25
2023-04-16T00:29:37.606Z,9.25
2023-04-16T00:32:05.940Z,9.24
2023-04-16T00:34:33.589Z,9.23
2023-04-16T00:37:01.482Z,9.24
2023-04-16T00:39:29.146Z,9.24
2023-04-16T00:41:56.851Z,9.24
2023-04-16T00:44:24.530Z,9.24
2023-04-16T00:46:52.297Z,9.24
2023-04-16T00:49:20.017Z,9.23
2023-04-16T00:51:48.152Z,9.21
2023-04-16T00:54:15.983Z,9.20
2023-04-16T00:56:44.598Z,9.20
2023-04-16T00:59:12.524Z,9.20
2023-04-16T01:01:40.609Z,9.20
2023-04-16T01:04:08.651Z,9.21
2023-04-16T01:06:36.479Z,9.20
2023-04-16T01:09:04.210Z,9.21
2023-04-16T01:11:32.091Z,9.21
2023-04-16T01:13:59.705Z,9.20
2023-04-16T01:16:27.461Z,9.20
2023-04-16T01:18:55.144Z,9.20
2023-04-16T01:21:22.779Z,9.20
2023-04-16T01:23:50.563Z,9.19
2023-04-16T01:26:18.208Z,9.18
2023-04-16T01:28:45.916Z,9.18
2023-04-16T01:31:13.595Z,9.17
2023-04-16T01:33:41.328Z,9.18
2023-04-16T01:36:09.000Z,9.17
2023-04-16T01:38:36.677Z,9.16
2023-04-16T01:41:04.304Z,9.15
2023-04-16T01:43:31.984Z,9.15
2023-04-16T01:46:15.248Z,9.13
2023-04-16T01:48:43.133Z,9.12
2023-04-16T01:51:10.977Z,9.10
2023-04-16T01:53:38.726Z,9.09
2023-04-16T01:56:06.863Z,9.07
2023-04-16T01:58:35.759Z,9.06
2023-04-16T02:01:04.528Z,9.05
2023-04-16T02:03:32.659Z,9.04
2023-04-16T02:06:01.529Z,9.03
2023-04-16T02:08:29.201Z,9.02
2023-04-16T02:10:57.576Z,9.02
2023-04-16T02:13:26.140Z,9.01
2023-04-16T02:15:53.940Z,9.00
2023-04-16T02:18:21.584Z,9.00
2023-04-16T02:20:51.888Z,8.99
2023-04-16T02:23:19.534Z,9.00
2023-04-16T02:25:47.702Z,8.99
2023-04-16T02:28:17.128Z,8.99
2023-04-16T02:30:45.298Z,9.00
2023-04-16T02:33:13.295Z,9.00
2023-04-16T02:35:41.350Z,8.98
2023-04-16T02:38:09.284Z,8.96
2023-04-16T02:40:37.062Z,8.97
2023-04-16T02:43:04.722Z,8.95
2023-04-16T02:45:32.445Z,8.95
2023-04-16T02:48:00.957Z,8.94
2023-04-16T02:50:28.767Z,8.94
2023-04-16T02:52:56.493Z,8.93
2023-04-16T02:55:24.269Z,8.92
2023-04-16T02:57:53.082Z,8.92
2023-04-16T03:00:20.840Z,8.91
2023-04-16T03:02:48.656Z,8.90
2023-04-16T03:05:16.621Z,8.90
2023-04-16T03:07:44.326Z,8.89
2023-04-16T03:10:12.485Z,8.87
2023-04-16T03:12:40.131Z,8.87
2023-04-16T03:15:08.511Z,8.85
2023-04-16T03:17:36.447Z,8.84
2023-04-16T03:20:05.778Z,8.85
2023-04-16T03:22:33.468Z,8.85
2023-04-16T03:25:01.425Z,8.84
2023-04-16T03:27:29.092Z,8.85
2023-04-16T03:29:57.245Z,8.85
2023-04-16T03:32:24.949Z,8.85
2023-04-16T03:34:52.783Z,8.84
2023-04-16T03:37:20.547Z,8.83
2023-04-16T03:39:48.208Z,8.82
2023-04-16T03:42:16.157Z,8.81
2023-04-16T03:44:43.955Z,8.81
2023-04-16T03:47:11.716Z,8.81
2023-04-16T03:49:39.359Z,8.81
2023-04-16T03:52:07.420Z,8.80
2023-04-16T03:54:35.103Z,8.81
2023-04-16T03:57:03.068Z,8.80
2023-04-16T03:59:30.833Z,8.82
2023-04-16T04:01:58.495Z,8.82
2023-04-16T04:04:26.426Z,8.81
2023-04-16T04:06:54.365Z,8.81
2023-04-16T04:09:22.093Z,8.81
2023-04-16T04:11:50.635Z,8.81
2023-04-16T04:14:18.333Z,8.83
2023-04-16T04:16:46.430Z,8.83
2023-04-16T04:19:14.270Z,8.84
2023-04-16T04:21:41.902Z,8.85
2023-04-16T04:24:09.668Z,8.85
2023-04-16T04:26:37.536Z,8.86
2023-04-16T04:29:05.838Z,8.87
2023-04-16T04:31:33.662Z,8.90
2023-04-16T04:34:01.392Z,8.93
2023-04-16T04:36:29.122Z,8.95
2023-04-16T04:38:56.814Z,8.98
2023-04-16T04:41:24.759Z,9.01
2023-04-16T04:43:52.648Z,9.03
2023-04-16T04:46:20.563Z,9.06
2023-04-16T04:48:48.446Z,9.08
2023-04-16T04:51:16.081Z,9.10
2023-04-16T04:53:43.770Z,9.11
2023-04-16T04:56:13.031Z,9.13
2023-04-16T04:58:41.985Z,9.16
2023-04-16T05:01:09.805Z,9.18
2023-04-16T05:03:37.803Z,9.20
2023-04-16T05:06:07.090Z,9.21
2023-04-16T05:08:34.718Z,9.23
2023-04-16T05:11:02.513Z,9.26
2023-04-16T05:13:30.157Z,9.30
2023-04-16T05:15:57.943Z,9.34
2023-04-16T05:18:25.602Z,9.36
2023-04-16T05:20:53.362Z,9.39
2023-04-16T05:23:21.028Z,9.42
2023-04-16T05:25:48.688Z,9.47
2023-04-16T05:28:16.346Z,9.51
2023-04-16T05:30:44.095Z,9.56
2023-04-16T05:33:11.751Z,9.62
2023-04-16T05:35:39.465Z,9.68
2023-04-16T05:38:07.178Z,9.72
2023-04-16T05:40:34.860Z,9.78
2023-04-16T05:43:02.618Z,9.81
2023-04-16T05:45:31.502Z,9.84
2023-04-16T05:47:59.228Z,9.86
2023-04-16T05:50:27.030Z,9.89
2023-04-16T05:52:54.790Z,9.91
2023-04-16T05:55:22.876Z,9.94
2023-04-16T05:57:50.636Z,9.97
2023-04-16T06:00:18.581Z,10.01
2023-04-16T06:02:46.465Z,10.05
2023-04-16T06:05:14.662Z,10.09
2023-04-16T06:07:42.739Z,10.12
2023-04-16T06:10:10.996Z,10.15
2023-04-16T06:12:38.651Z,10.17
2023-04-16T06:15:07.402Z,10.18
2023-04-16T06:17:35.170Z,10.19
2023-04-16T06:20:03.080Z,10.19
2023-04-16T06:22:31.033Z,10.21
2023-04-16T06:24:58.837Z,10.21
2023-04-16T06:27:27.277Z,10.22
2023-04-16T06:29:54.920Z,10.26
2023-04-16T06:32:22.810Z,10.27
2023-04-16T06:34:50.969Z,10.28
2023-04-16T06:37:18.593Z,10.30
2023-04-16T06:39:46.215Z,10.32
2023-04-16T06:42:14.077Z,10.33
2023-04-16T06:44:41.759Z,10.34
2023-04-16T06:47:09.628Z,10.35
2023-04-16T06:49:37.542Z,10.37
2023-04-16T06:52:06.155Z,10.40
2023-04-16T06:54:34.197Z,10.42
2023-04-16T06:57:02.166Z,10.43
2023-04-16T06:59:29.899Z,10.45
2023-04-16T07:01:57.816Z,10.46
2023-04-16T07:04:26.243Z,10.48
2023-04-16T07:06:54.075Z,10.50
2023-04-16T07:09:21.810Z,10.53
2023-04-16T07:11:49.451Z,10.59
2023-04-16T07:14:17.440Z,10.64
2023-04-16T07:16:45.129Z,10.71
2023-04-16T07:19:12.966Z,10.74
2023-04-16T07:21:43.645Z,10.75
2023-04-16T07:24:11.856Z,10.78
2023-04-16T07:26:39.636Z,10.80
2023-04-16T07:29:07.640Z,10.84
2023-04-16T07:31:35.712Z,10.87
2023-04-16T07:34:03.669Z,10.90
2023-04-16T07:36:32.016Z,10.94
2023-04-16T07:38:59.795Z,10.97
2023-04-16T07:41:29.575Z,11.02
2023-04-16T07:43:57.770Z,11.05
2023-04-16T07:46:30.539Z,11.10
2023-04-16T07:49:03.825Z,11.17
2023-04-16T07:51:31.615Z,11.25
2023-04-16T07:53:59.283Z,11.31
2023-04-16T07:56:27.644Z,11.37
2023-04-16T07:58:55.528Z,11.40
2023-04-16T08:01:23.269Z,11.41
2023-04-16T08:03:51.317Z,11.41
2023-04-16T08:06:19.200Z,11.43
2023-04-16T08:08:46.883Z,11.43
2023-04-16T08:11:15.368Z,11.46
2023-04-16T08:13:43.210Z,11.47
2023-04-16T08:16:11.270Z,11.52
2023-04-16T08:18:38.955Z,11.57
2023-04-16T08:21:06.675Z,11.59
2023-04-16T08:23:34.569Z,11.60
2023-04-16T08:26:02.338Z,11.63
2023-04-16T08:28:30.085Z,11.66
2023-04-16T08:30:57.894Z,11.71
2023-04-16T08:33:25.759Z,11.74
2023-04-16T08:35:53.407Z,11.76
2023-04-16T08:38:21.158Z,11.80
2023-04-16T08:40:49.018Z,11.84
2023-04-16T08:43:18.233Z,11.87
2023-04-16T08:45:47.693Z,11.91
2023-04-16T08:48:15.710Z,11.98
2023-04-16T08:50:44.229Z,12.07
2023-04-16T08:53:18.681Z,12.13
2023-04-16T08:55:50.759Z,12.19
2023-04-16T08:58:23.065Z,12.25
2023-04-16T09:00:52.161Z,12.32
2023-04-16T09:03:21.618Z,12.37
2023-04-16T09:05:50.560Z,12.44
2023-04-16T09:08:18.604Z,12.50
2023-04-16T09:10:46.964Z,12.57
2023-04-16T09:13:17.011Z,12.65
2023-04-16T09:15:44.917Z,12.74
2023-04-16T09:18:12.851Z,12.80
2023-04-16T09:20:40.624Z,12.87
2023-04-16T09:23:09.460Z,12.93
2023-04-16T09:25:38.632Z,12.98
2023-04-16T09:28:06.418Z,13.03
2023-04-16T09:30:34.956Z,13.08
2023-04-16T09:33:23.189Z,13.13
2023-04-16T09:35:53.180Z,13.18
2023-04-16T09:38:21.210Z,13.21
2023-04-16T09:41:08.912Z,13.23
2023-04-16T09:43:37.030Z,13.25
2023-04-16T09:46:08.214Z,13.31
2023-04-16T09:48:36.668Z,13.41
2023-04-16T09:51:06.558Z,13.49
2023-04-16T09:53:34.346Z,13.55
2023-04-16T09:56:04.948Z,13.64
2023-04-16T09:58:36.524Z,13.75
2023-04-16T10:01:04.208Z,13.83
2023-04-16T10:03:36.778Z,13.87
2023-04-16T10:06:09.564Z,13.87
2023-04-16T10:08:37.327Z,13.86
2023-04-16T10:11:05.533Z,13.84
2023-04-16T10:13:33.285Z,13.83
2023-04-16T10:16:01.716Z,13.85
2023-04-16T10:18:29.556Z,13.91
2023-04-16T10:20:57.663Z,13.95
2023-04-16T10:23:26.429Z,13.98
2023-04-16T10:25:57.528Z,13.99
2023-04-16T10:28:29.536Z,14.01
2023-04-16T10:30:58.789Z,13.98
2023-04-16T10:33:33.490Z,13.96
2023-04-16T10:36:27.709Z,13.94
2023-04-16T10:38:58.449Z,13.98
2023-04-16T10:41:26.989Z,14.01
2023-04-16T10:44:07.075Z,13.98
2023-04-16T10:46:44.877Z,13.99
2023-04-16T10:49:20.431Z,14.02
2023-04-16T10:52:13.049Z,14.08
2023-04-16T10:54:41.407Z,14.15
2023-04-16T10:57:14.979Z,14.22
2023-04-16T10:59:43.872Z,14.31
2023-04-16T11:02:19.213Z,14.44
2023-04-16T11:04:49.209Z,14.49
2023-04-16T11:07:31.755Z,14.54
2023-04-16T11:10:04.157Z,14.59
2023-04-16T11:12:40.492Z,14.61
2023-04-16T11:15:13.453Z,14.57
2023-04-16T11:17:48.527Z,14.54
2023-04-16T11:20:19.771Z,14.48
2023-04-16T11:22:53.835Z,14.43
2023-04-16T11:25:22.966Z,14.36
2023-04-16T11:27:52.096Z,14.30
2023-04-16T11:30:33.433Z,14.23
2023-04-16T11:33:12.324Z,14.17
2023-04-16T11:35:43.347Z,14.07
2023-04-16T11:38:11.035Z,14.00
2023-04-16T11:40:38.641Z,13.99
2023-04-16T11:43:16.825Z,14.00
2023-04-16T11:46:10.026Z,14.02
2023-04-16T11:48:50.372Z,14.02
2023-04-16T11:51:19.335Z,13.98
2023-04-16T11:53:53.171Z,13.93
2023-04-16T11:56:32.976Z,13.83
2023-04-16T11:59:24.201Z,13.76
2023-04-16T12:01:58.032Z,13.72
2023-04-16T12:04:27.743Z,13.68
2023-04-16T12:07:10.123Z,13.63
2023-04-16T12:09:40.784Z,13.59
2023-04-16T12:12:31.660Z,13.56
2023-04-16T12:15:03.609Z,13.55
2023-04-16T12:17:35.391Z,13.57
2023-04-16T12:20:08.441Z,13.60
2023-04-16T12:22:38.078Z,13.64
2023-04-16T12:25:10.660Z,13.69
2023-04-16T12:28:08.201Z,13.73
2023-04-16T12:30:51.502Z,13.76
2023-04-16T12:33:19.602Z,13.86
2023-04-16T12:35:47.457Z,13.97
2023-04-16T12:38:15.539Z,14.09
2023-04-16T12:40:43.717Z,14.20
2023-04-16T12:43:11.992Z,14.31
2023-04-16T12:45:40.590Z,14.46
2023-04-16T12:48:08.442Z,14.58
2023-04-16T12:50:36.209Z,14.55
2023-04-16T12:53:04.063Z,14.50
2023-04-16T12:55:31.836Z,14.46
2023-04-16T12:57:59.539Z,14.41
2023-04-16T13:00:27.357Z,14.31
2023-04-16T13:02:55.177Z,14.21
2023-04-16T13:05:22.984Z,14.18
2023-04-16T13:07:50.698Z,14.17
2023-04-16T13:10:21.571Z,14.14
2023-04-16T13:12:49.358Z,14.14
2023-04-16T13:15:17.207Z,14.22
2023-04-16T13:17:45.057Z,14.34
2023-04-16T13:20:12.955Z,14.44
2023-04-16T13:22:40.861Z,14.51
2023-04-16T13:25:09.359Z,14.58
2023-04-16T13:27:37.170Z,14.62
2023-04-16T13:30:05.877Z,14.68
2023-04-16T13:32:33.861Z,14.88
2023-04-16T13:35:01.778Z,15.09
2023-04-16T13:37:29.474Z,15.18
2023-04-16T13:39:57.195Z,15.22
2023-04-16T13:42:24.856Z,15.29
2023-04-16T13:44:55.046Z,15.35
2023-04-16T13:47:22.957Z,15.35
2023-04-16T13:49:50.828Z,15.31
2023-04-16T13:52:18.572Z,15.27
2023-04-16T13:54:46.258Z,15.21
2023-04-16T13:57:14.240Z,15.13
2023-04-16T13:59:42.076Z,15.03
2023-04-16T14:02:14.308Z,14.92
2023-04-16T14:04:42.068Z,14.83
2023-04-16T14:07:09.734Z,14.77
2023-04-16T14:09:37.672Z,14.69
2023-04-16T14:12:05.970Z,14.62
2023-04-16T14:14:33.895Z,14.63
2023-04-16T14:17:03.425Z,14.65
2023-04-16T14:19:31.349Z,14.67
2023-04-16T14:21:59.115Z,14.68
2023-04-16T14:24:26.876Z,14.69
2023-04-16T14:26:54.526Z,14.64
2023-04-16T14:29:22.281Z,14.58
2023-04-16T14:31:50.512Z,14.61
2023-04-16T14:34:18.248Z,14.65
2023-04-16T14:36:46.027Z,14.68
2023-04-16T14:39:13.760Z,14.71
2023-04-16T14:41:41.631Z,14.67
2023-04-16T14:44:09.234Z,14.66
2023-04-16T14:46:38.619Z,14.73
2023-04-16T14:49:06.533Z,14.79
2023-04-16T14:51:34.284Z,14.86
2023-04-16T14:54:02.183Z,14.81
2023-04-16T14:56:30.205Z,14.80
2023-04-16T14:58:57.916Z,14.84
2023-04-16T15:01:26.281Z,14.93
2023-04-16T15:03:56.611Z,15.01
2023-04-16T15:06:24.476Z,15.08
2023-04-16T15:08:52.236Z,15.08
2023-04-16T15:11:20.024Z,15.04
2023-04-16T15:13:47.708Z,14.99
2023-04-16T15:16:15.451Z,14.92
2023-04-16T15:18:43.410Z,14.77
2023-04-16T15:21:12.556Z,14.65
2023-04-16T15:23:40.668Z,14.56
2023-04-16T15:26:08.408Z,14.56
2023-04-16T15:28:36.061Z,14.56
2023-04-16T15:31:03.771Z,14.54
2023-04-16T15:33:31.514Z,14.46
2023-04-16T15:35:59.198Z,14.45
2023-04-16T15:38:28.782Z,14.39
2023-04-16T15:40:59.823Z,14.31
2023-04-16T15:43:29.120Z,14.25
2023-04-16T15:45:57.400Z,14.18
2023-04-16T15:48:25.110Z,14.22
2023-04-16T15:50:54.264Z,14.25
2023-04-16T15:53:22.307Z,14.26
2023-04-16T15:55:52.685Z,14.23
2023-04-16T15:58:23.594Z,14.23
2023-04-16T16:00:51.541Z,14.25
2023-04-16T16:03:20.123Z,14.28
2023-04-16T16:05:48.620Z,14.27
2023-04-16T16:08:16.818Z,14.29
2023-04-16T16:10:44.700Z,14.26
2023-04-16T16:13:14.111Z,14.25
2023-04-16T16:15:42.624Z,14.27
2023-04-16T16:18:10.831Z,14.30
2023-04-16T16:20:40.662Z,14.36
2023-04-16T16:23:08.420Z,14.41
2023-04-16T16:25:36.355Z,14.39
2023-04-16T16:28:06.651Z,14.35
2023-04-16T16:30:34.527Z,14.31
2023-04-16T16:33:02.301Z,14.29
2023-04-16T16:35:30.081Z,14.26
2023-04-16T16:37:59.481Z,14.27
2023-04-16T16:40:27.929Z,14.42
2023-04-16T16:42:56.185Z,14.62
2023-04-16T16:45:26.321Z,14.73
2023-04-16T16:47:55.008Z,14.71
2023-04-16T16:50:22.910Z,14.58
2023-04-16T16:52:50.858Z,14.42
2023-04-16T16:55:19.116Z,14.31
2023-04-16T16:57:47.115Z,14.18
2023-04-16T17:00:16.347Z,14.06
2023-04-16T17:02:44.556Z,13.93
2023-04-16T17:05:13.085Z,13.75
2023-04-16T17:07:40.824Z,13.51
2023-04-16T17:10:15.863Z,13.31
2023-04-16T17:12:43.548Z,13.16
2023-04-16T17:15:11.887Z,13.00
2023-04-16T17:17:39.778Z,12.83
2023-04-16T17:20:10.006Z,12.66
2023-04-16T17:22:39.126Z,12.50
2023-04-16T17:25:08.222Z,12.35
2023-04-16T17:27:36.309Z,12.24
2023-04-16T17:30:05.840Z,12.13
2023-04-16T17:32:33.773Z,12.00
2023-04-16T17:35:04.515Z,11.89
2023-04-16T17:37:32.692Z,11.78
2023-04-16T17:40:00.540Z,11.69
2023-04-16T17:42:28.246Z,11.62
2023-04-16T17:44:56.031Z,11.53
2023-04-16T17:47:23.783Z,11.44
2023-04-16T17:49:55.555Z,11.35
2023-04-16T17:52:23.387Z,11.25
2023-04-16T17:54:51.286Z,11.17
2023-04-16T17:57:19.035Z,11.10
2023-04-16T17:59:46.800Z,11.03
2023-04-16T18:02:14.902Z,10.96
2023-04-16T18:04:43.045Z,10.88
2023-04-16T18:07:11.568Z,10.82
2023-04-16T18:09:39.377Z,10.77
2023-04-16T18:12:07.542Z,10.69
2023-04-16T18:14:35.999Z,10.64
2023-04-16T18:17:06.243Z,10.60
2023-04-16T18:19:35.610Z,10.56
2023-04-16T18:22:03.882Z,10.51
2023-04-16T18:24:33.498Z,10.48
2023-04-16T18:27:01.734Z,10.45
2023-04-16T18:29:29.571Z,10.42
2023-04-16T18:31:57.435Z,10.40
2023-04-16T18:34:26.026Z,10.37
2023-04-16T18:36:54.162Z,10.34
2023-04-16T18:39:21.997Z,10.31
2023-04-16T18:41:49.919Z,10.28
2023-04-16T18:44:19.920Z,10.25
2023-04-16T18:46:48.650Z,10.20
2023-04-16T18:49:16.529Z,10.15
2023-04-16T18:51:44.294Z,10.11
2023-04-16T18:54:12.103Z,10.07
2023-04-16T18:56:39.889Z,10.03
2023-04-16T18:59:07.710Z,9.97
2023-04-16T19:01:35.740Z,9.92
2023-04-16T19:04:03.845Z,9.87
2023-04-16T19:06:32.542Z,9.83
2023-04-16T19:09:00.257Z,9.78
2023-04-16T19:11:28.039Z,9.72
2023-04-16T19:13:57.497Z,9.67
2023-04-16T19:16:25.307Z,9.63
2023-04-16T19:18:53.100Z,9.59
2023-04-16T19:21:20.792Z,9.53
2023-04-16T19:23:49.117Z,9.48
2023-04-16T19:26:16.870Z,9.45
2023-04-16T19:28:45.827Z,9.41
2023-04-16T19:31:13.571Z,9.37
2023-04-16T19:33:41.685Z,9.33
2023-04-16T19:36:09.444Z,9.30
2023-04-16T19:38:37.261Z,9.25
2023-04-16T19:41:05.099Z,9.21
2023-04-16T19:43:33.355Z,9.18
2023-04-16T19:46:01.375Z,9.13
2023-04-16T19:48:30.581Z,9.10
2023-04-16T19:51:03.296Z,9.07
2023-04-16T19:53:31.072Z,9.03
2023-04-16T19:55:58.967Z,9.00
2023-04-16T19:58:27.210Z,8.96
2023-04-16T20:00:55.837Z,8.91
2023-04-16T20:03:23.700Z,8.87
2023-04-16T20:05:51.372Z,8.82
2023-04-16T20:08:19.403Z,8.77
2023-04-16T20:10:47.060Z,8.73
2023-04-16T20:13:16.716Z,8.70
2023-04-16T20:15:47.288Z,8.66
2023-04-16T20:18:15.451Z,8.62
2023-04-16T20:20:43.188Z,8.59
2023-04-16T20:23:11.288Z,8.58
2023-04-16T20:25:43.065Z,8.55
2023-04-16T20:28:10.821Z,8.53
2023-04-16T20:30:41.472Z,8.49
2023-04-16T20:33:09.619Z,8.47
2023-04-16T20:35:37.656Z,8.46
2023-04-16T20:38:05.389Z,8.45
2023-04-16T20:40:33.396Z,8.44
2023-04-16T20:43:01.178Z,8.42
2023-04-16T20:45:32.233Z,8.39
2023-04-16T20:48:00.141Z,8.37
2023-04-16T20:50:27.987Z,8.34
2023-04-16T20:52:56.398Z,8.32
2023-04-16T20:55:24.570Z,8.30
2023-04-16T20:57:52.446Z,8.28
2023-04-16T21:00:20.591Z,8.25
2023-04-16T21:02:48.437Z,8.23
2023-04-16T21:05:16.354Z,8.22
2023-04-16T21:07:44.074Z,8.21
2023-04-16T21:10:11.991Z,8.19
2023-04-16T21:12:39.834Z,8.17
2023-04-16T21:15:07.901Z,8.15
2023-04-16T21:17:35.930Z,8.14
2023-04-16T21:20:06.982Z,8.13
2023-04-16T21:22:34.811Z,8.11
2023-04-16T21:25:02.765Z,8.08
2023-04-16T21:27:30.523Z,8.05
2023-04-16T21:29:58.306Z,8.03
2023-04-16T21:32:26.091Z,8.03
2023-04-16T21:34:53.926Z,8.02
2023-04-16T21:37:21.579Z,8.01
2023-04-16T21:39:49.383Z,8.00
2023-04-16T21:42:17.107Z,7.98
2023-04-16T21:44:44.712Z,7.96
2023-04-16T21:47:12.908Z,7.96
2023-04-16T21:49:42.312Z,7.95
2023-04-16T21:52:18.397Z,7.94
2023-04-16T21:54:47.016Z,7.95
2023-04-16T21:57:14.856Z,7.95
2023-04-16T21:59:42.490Z,7.96
2023-04-16T22:02:10.229Z,7.98
2023-04-16T22:04:39.020Z,7.99
2023-04-16T22:07:09.007Z,8.00
2023-04-16T22:09:36.851Z,8.03
2023-04-16T22:12:12.199Z,8.05
2023-04-16T22:14:46.232Z,8.04
2023-04-16T22:17:17.188Z,8.04
2023-04-16T22:19:45.584Z,8.04
2023-04-16T22:22:13.564Z,8.05
2023-04-16T22:24:42.738Z,8.05
2023-04-16T22:27:10.744Z,8.05
2023-04-16T22:29:38.386Z,8.05
2023-04-16T22:32:06.082Z,8.04
2023-04-16T22:34:33.898Z,8.02
2023-04-16T22:37:03.145Z,8.00
2023-04-16T22:39:31.701Z,7.97
2023-04-16T22:41:59.679Z,7.94
2023-04-16T22:44:27.336Z,7.92
2023-04-16T22:46:55.036Z,7.90
2023-04-16T22:49:22.694Z,7.87
2023-04-16T22:51:50.353Z,7.84
2023-04-16T22:54:17.978Z,7.84
2023-04-16T22:56:48.734Z,7.84
2023-04-16T22:59:16.530Z,7.86
2023-04-16T23:01:44.279Z,7.88
2023-04-16T23:04:12.182Z,7.91
2023-04-16T23:06:41.000Z,7.93
2023-04-16T23:09:09.484Z,7.96
2023-04-16T23:11:37.236Z,7.97
2023-04-16T23:14:05.223Z,7.97
2023-04-16T23:16:32.851Z,7.97
2023-04-16T23:19:00.468Z,7.97
2023-04-16T23:21:28.673Z,7.98
2023-04-16T23:23:57.156Z,7.99
2023-04-16T23:26:24.840Z,8.01
2023-04-16T23:28:52.461Z,8.03
2023-04-16T23:31:20.190Z,8.03
2023-04-16T23:33:47.918Z,8.04
2023-04-16T23:36:15.785Z,8.05
2023-04-16T23:38:43.453Z,8.07
2023-04-16T23:41:11.143Z,8.08
2023-04-16T23:43:40.697Z,8.08
2023-04-16T23:46:08.528Z,8.09
2023-04-16T23:48:36.327Z,8.09
2023-04-16T23:51:04.427Z,8.08
2023-04-16T23:53:32.055Z,8.08
2023-04-16T23:55:59.660Z,8.07
2023-04-16T23:58:27.390Z,8.05
